createdAt,value
2019-05-26T00:00:19.479Z,13.35
2019-05-26T00:01:24.402Z,12.98
2019-05-26T00:02:29.933Z,13.08
2019-05-26T00:03:34.947Z,13.60
2019-05-26T00:04:40.483Z,14.85
2019-05-26T00:05:45.405Z,14.75
2019-05-26T00:06:50.902Z,11.63
2019-05-26T00:07:55.890Z,10.45
2019-05-26T00:09:01.777Z,13.38
2019-05-26T00:10:07.605Z,11.43
2019-05-26T00:11:13.201Z,10.98
2019-05-26T00:12:18.226Z,13.50
2019-05-26T00:13:24.056Z,13.72
2019-05-26T00:14:29.314Z,15.58
2019-05-26T00:15:34.905Z,11.90
2019-05-26T00:16:39.971Z,29.27
2019-05-26T00:17:45.782Z,18.90
2019-05-26T00:18:50.754Z,13.83
2019-05-26T00:19:56.518Z,14.30
2019-05-26T00:21:01.548Z,18.60
2019-05-26T00:22:07.146Z,16.60
2019-05-26T00:23:12.157Z,13.53
2019-05-26T00:24:17.959Z,14.13
2019-05-26T00:25:22.979Z,13.55
2019-05-26T00:26:28.564Z,13.28
2019-05-26T00:27:33.775Z,17.80
2019-05-26T00:28:39.587Z,12.82
2019-05-26T00:29:44.542Z,12.78
2019-05-26T00:30:50.046Z,13.88
2019-05-26T00:31:55.080Z,13.95
2019-05-26T00:33:00.629Z,12.63
2019-05-26T00:34:05.562Z,13.25
2019-05-26T00:35:11.214Z,17.10
2019-05-26T00:36:16.145Z,16.23
2019-05-26T00:37:23.704Z,15.93
2019-05-26T00:38:28.685Z,11.75
2019-05-26T00:39:34.241Z,16.80
2019-05-26T00:40:38.087Z,15.38
2019-05-26T00:41:43.086Z,14.30
2019-05-26T00:42:48.377Z,16.02
2019-05-26T00:43:53.778Z,11.08
2019-05-26T00:44:58.983Z,14.35
2019-05-26T00:46:04.432Z,18.52
2019-05-26T00:47:09.819Z,17.52
2019-05-26T00:48:15.295Z,15.03
2019-05-26T00:49:20.534Z,14.40
2019-05-26T00:50:26.079Z,15.93
2019-05-26T00:51:32.455Z,18.25
2019-05-26T00:52:38.015Z,18.65
2019-05-26T00:53:43.305Z,17.67
2019-05-26T00:54:49.058Z,16.77
2019-05-26T00:55:54.325Z,14.60
2019-05-26T00:56:59.959Z,15.50
2019-05-26T00:58:05.226Z,18.52
2019-05-26T00:59:10.623Z,19.30
2019-05-26T01:00:17.380Z,20.08
2019-05-26T01:01:23.099Z,15.78
2019-05-26T01:02:28.298Z,21.68
2019-05-26T01:03:33.612Z,18.90
2019-05-26T01:04:38.873Z,23.20
2019-05-26T01:05:44.869Z,23.05
2019-05-26T01:06:50.103Z,17.20
2019-05-26T01:08:05.793Z,19.80
2019-05-26T01:09:02.373Z,16.23
2019-05-26T01:10:08.972Z,19.48
2019-05-26T01:11:14.135Z,15.70
2019-05-26T01:12:19.468Z,19.70
2019-05-26T01:13:24.628Z,18.20
2019-05-26T01:14:30.385Z,17.25
2019-05-26T01:15:35.707Z,20.30
2019-05-26T01:16:41.136Z,17.42
2019-05-26T01:17:46.558Z,16.32
2019-05-26T01:18:51.992Z,18.27
2019-05-26T01:19:57.362Z,17.42
2019-05-26T01:21:02.968Z,23.22
2019-05-26T01:22:08.095Z,23.22
2019-05-26T01:23:13.566Z,17.45
2019-05-26T01:24:21.734Z,21.70
2019-05-26T01:25:27.175Z,18.92
2019-05-26T01:26:32.478Z,27.02
2019-05-26T01:27:37.854Z,17.48
2019-05-26T01:28:42.980Z,19.17
2019-05-26T01:29:48.646Z,21.55
2019-05-26T01:30:53.807Z,19.45
2019-05-26T01:31:59.140Z,17.20
2019-05-26T01:33:04.756Z,17.80
2019-05-26T01:34:10.370Z,22.17
2019-05-26T01:35:15.584Z,19.85
2019-05-26T01:36:20.662Z,23.45
2019-05-26T01:37:25.864Z,18.70
2019-05-26T01:38:31.753Z,21.35
2019-05-26T01:39:36.951Z,18.45
2019-05-26T01:40:45.553Z,17.77
2019-05-26T01:41:50.721Z,22.17
2019-05-26T01:42:56.032Z,20.25
2019-05-26T01:44:01.186Z,21.87
2019-05-26T01:45:06.666Z,24.95
2019-05-26T01:46:11.818Z,24.27
2019-05-26T01:47:17.119Z,22.55
2019-05-26T01:48:22.660Z,25.92
2019-05-26T01:49:28.074Z,25.55
2019-05-26T01:50:33.361Z,22.85
2019-05-26T01:51:38.754Z,28.40
2019-05-26T01:52:44.206Z,25.17
2019-05-26T01:53:49.556Z,25.77
2019-05-26T01:54:54.681Z,25.05
2019-05-26T01:56:00.407Z,27.52
2019-05-26T01:57:05.700Z,20.90
2019-05-26T01:58:11.064Z,20.92
2019-05-26T01:59:16.192Z,29.35
2019-05-26T02:00:21.680Z,23.18
2019-05-26T02:01:27.128Z,22.42
2019-05-26T02:02:32.474Z,24.87
2019-05-26T02:03:37.706Z,34.45
2019-05-26T02:04:43.139Z,29.15
2019-05-26T02:05:48.363Z,28.15
2019-05-26T02:06:53.712Z,24.95
2019-05-26T02:07:58.917Z,30.25
2019-05-26T02:09:06.923Z,32.58
2019-05-26T02:10:12.261Z,28.25
2019-05-26T02:11:20.702Z,26.42
2019-05-26T02:12:26.104Z,26.12
2019-05-26T02:13:31.532Z,25.75
2019-05-26T02:14:36.661Z,28.20
2019-05-26T02:15:42.297Z,25.82
2019-05-26T02:16:47.438Z,30.62
2019-05-26T02:17:52.900Z,30.40
2019-05-26T02:18:58.307Z,28.17
2019-05-26T02:20:03.804Z,30.85
2019-05-26T02:21:08.923Z,37.85
2019-05-26T02:22:14.558Z,27.75
2019-05-26T02:23:20.084Z,28.65
2019-05-26T02:24:25.467Z,29.35
2019-05-26T02:25:30.685Z,27.93
2019-05-26T02:26:36.245Z,31.42
2019-05-26T02:27:41.465Z,28.50
2019-05-26T02:28:46.879Z,29.32
2019-05-26T02:29:52.110Z,31.23
2019-05-26T02:30:57.741Z,30.12
2019-05-26T02:32:02.902Z,30.27
2019-05-26T02:33:08.293Z,32.98
2019-05-26T02:34:13.415Z,29.23
2019-05-26T02:35:19.444Z,29.12
2019-05-26T02:36:24.654Z,31.33
2019-05-26T02:37:30.093Z,28.20
2019-05-26T02:38:35.477Z,35.00
2019-05-26T02:39:41.085Z,30.60
2019-05-26T02:40:46.332Z,34.78
2019-05-26T02:41:51.716Z,31.57
2019-05-26T02:42:56.907Z,38.13
2019-05-26T02:44:02.243Z,32.58
2019-05-26T02:45:08.697Z,35.23
2019-05-26T02:46:14.055Z,31.93
2019-05-26T02:47:19.258Z,36.03
2019-05-26T02:48:24.806Z,32.85
2019-05-26T02:49:29.954Z,32.42
2019-05-26T02:50:35.541Z,38.90
2019-05-26T02:51:40.765Z,34.58
2019-05-26T02:52:46.258Z,32.42
2019-05-26T02:53:51.413Z,33.20
2019-05-26T02:54:56.812Z,35.23
2019-05-26T02:56:02.327Z,40.67
2019-05-26T02:57:07.783Z,37.05
2019-05-26T02:58:16.154Z,44.70
2019-05-26T02:59:21.603Z,41.50
2019-05-26T03:00:41.397Z,37.75
2019-05-26T03:02:02.106Z,42.73
2019-05-26T03:02:57.148Z,35.95
2019-05-26T03:04:02.648Z,41.65
2019-05-26T03:05:09.523Z,36.45
2019-05-26T03:06:15.701Z,39.08
2019-05-26T03:07:21.927Z,39.13
2019-05-26T03:08:28.731Z,44.90
2019-05-26T03:09:36.937Z,40.52
2019-05-26T03:10:42.441Z,39.10
2019-05-26T03:11:50.877Z,41.88
2019-05-26T03:12:57.421Z,42.95
2019-05-26T03:14:04.711Z,46.18
2019-05-26T03:15:10.582Z,44.48
2019-05-26T03:16:19.088Z,40.60
2019-05-26T03:17:25.833Z,42.27
2019-05-26T03:18:33.066Z,43.15
2019-05-26T03:19:40.769Z,43.20
2019-05-26T03:20:46.084Z,42.65
2019-05-26T03:21:54.513Z,48.42
2019-05-26T03:23:00.803Z,45.63
2019-05-26T03:24:06.369Z,41.58
2019-05-26T03:25:13.139Z,49.27
2019-05-26T03:26:23.527Z,50.05
2019-05-26T03:27:28.663Z,44.55
2019-05-26T03:28:34.086Z,46.88
2019-05-26T03:29:39.329Z,55.58
2019-05-26T03:30:44.785Z,46.98
2019-05-26T03:31:49.986Z,56.18
2019-05-26T03:32:55.609Z,58.13
2019-05-26T03:34:01.073Z,55.75
2019-05-26T03:35:07.549Z,64.77
2019-05-26T03:36:12.747Z,66.50
2019-05-26T03:37:18.297Z,75.35
2019-05-26T03:38:24.040Z,81.72
2019-05-26T03:39:43.345Z,77.75
2019-05-26T03:40:36.245Z,82.65
2019-05-26T03:41:42.069Z,100.05
2019-05-26T03:42:47.211Z,106.45
2019-05-26T03:43:52.623Z,104.20
2019-05-26T03:44:57.865Z,112.52
2019-05-26T03:46:22.538Z,114.35
2019-05-26T03:47:27.655Z,107.80
2019-05-26T03:48:33.032Z,107.65
2019-05-26T03:49:38.197Z,96.02
2019-05-26T03:50:43.620Z,107.12
2019-05-26T03:51:48.758Z,99.42
2019-05-26T03:52:54.105Z,110.90
2019-05-26T03:53:59.272Z,102.92
2019-05-26T03:55:05.122Z,111.45
2019-05-26T03:56:10.404Z,92.95
2019-05-26T03:57:16.070Z,97.27
2019-05-26T03:58:21.273Z,99.55
2019-05-26T03:59:26.637Z,89.45
2019-05-26T04:00:31.787Z,90.07
2019-05-26T04:01:37.107Z,82.25
2019-05-26T04:02:42.538Z,82.97
2019-05-26T04:03:47.857Z,77.70
2019-05-26T04:04:53.186Z,74.60
2019-05-26T04:05:58.517Z,80.55
2019-05-26T04:07:04.092Z,79.77
2019-05-26T04:08:09.470Z,66.62
2019-05-26T04:09:14.681Z,69.27
2019-05-26T04:10:20.260Z,60.08
2019-05-26T04:11:25.541Z,70.70
2019-05-26T04:12:30.945Z,59.88
2019-05-26T04:13:36.199Z,55.70
2019-05-26T04:14:41.493Z,52.65
2019-05-26T04:15:46.791Z,50.85
2019-05-26T04:16:52.276Z,59.88
2019-05-26T04:17:57.670Z,49.73
2019-05-26T04:19:03.060Z,47.85
2019-05-26T04:20:08.389Z,50.38
2019-05-26T04:21:14.050Z,46.23
2019-05-26T04:22:19.436Z,46.85
2019-05-26T04:23:24.831Z,50.15
2019-05-26T04:24:30.254Z,43.00
2019-05-26T04:25:35.705Z,57.10
2019-05-26T04:26:40.851Z,44.05
2019-05-26T04:27:46.217Z,54.08
2019-05-26T04:28:51.660Z,47.03
2019-05-26T04:29:56.961Z,51.73
2019-05-26T04:31:02.264Z,45.65
2019-05-26T04:32:08.539Z,46.05
2019-05-26T04:33:14.036Z,50.05
2019-05-26T04:34:19.455Z,51.70
2019-05-26T04:35:24.679Z,51.63
2019-05-26T04:36:30.028Z,49.70
2019-05-26T04:37:35.258Z,46.15
2019-05-26T04:38:40.941Z,54.70
2019-05-26T04:39:46.111Z,53.58
2019-05-26T04:40:51.528Z,47.05
2019-05-26T04:41:56.664Z,65.57
2019-05-26T04:43:02.249Z,51.20
2019-05-26T04:44:07.403Z,52.50
2019-05-26T04:45:12.976Z,51.95
2019-05-26T04:46:18.253Z,49.18
2019-05-26T04:47:24.008Z,54.13
2019-05-26T04:48:29.384Z,56.15
2019-05-26T04:49:37.716Z,53.02
2019-05-26T04:50:41.821Z,54.65
2019-05-26T04:51:47.269Z,52.78
2019-05-26T04:53:05.200Z,51.45
2019-05-26T04:53:59.511Z,52.55
2019-05-26T04:55:05.009Z,50.83
2019-05-26T04:56:10.419Z,58.87
2019-05-26T04:57:15.562Z,51.00
2019-05-26T04:58:20.922Z,53.70
2019-05-26T04:59:26.148Z,53.73
2019-05-26T05:00:31.566Z,54.80
2019-05-26T05:01:36.742Z,51.13
2019-05-26T05:02:42.401Z,55.70
2019-05-26T05:03:47.641Z,60.52
2019-05-26T05:04:53.036Z,54.05
2019-05-26T05:05:58.273Z,52.03
2019-05-26T05:07:04.003Z,53.38
2019-05-26T05:08:09.770Z,55.65
2019-05-26T05:09:15.110Z,63.17
2019-05-26T05:10:20.378Z,53.05
2019-05-26T05:11:25.873Z,57.27
2019-05-26T05:12:32.150Z,54.80
2019-05-26T05:13:37.459Z,50.92
2019-05-26T05:14:42.633Z,54.48
2019-05-26T05:15:47.944Z,52.10
2019-05-26T05:16:53.437Z,53.40
2019-05-26T05:17:58.870Z,50.98
2019-05-26T05:19:04.076Z,54.35
2019-05-26T05:20:10.063Z,52.48
2019-05-26T05:21:15.613Z,54.00
2019-05-26T05:22:21.024Z,61.63
2019-05-26T05:23:26.463Z,54.85
2019-05-26T05:24:32.003Z,53.58
2019-05-26T05:25:37.454Z,53.75
2019-05-26T05:26:43.105Z,57.53
2019-05-26T05:27:48.501Z,60.20
2019-05-26T05:28:54.164Z,56.02
2019-05-26T05:29:59.291Z,52.62
2019-05-26T05:31:04.799Z,55.05
2019-05-26T05:32:10.044Z,52.43
2019-05-26T05:33:15.386Z,55.25
2019-05-26T05:34:20.692Z,56.05
2019-05-26T05:35:26.352Z,48.68
2019-05-26T05:36:31.874Z,51.02
2019-05-26T05:37:37.412Z,57.35
2019-05-26T05:38:42.883Z,58.17
2019-05-26T05:39:48.192Z,53.48
2019-05-26T05:40:59.350Z,53.65
2019-05-26T05:42:00.360Z,56.10
2019-05-26T05:43:05.617Z,54.60
2019-05-26T05:44:11.041Z,52.10
2019-05-26T05:45:16.568Z,53.98
2019-05-26T05:46:22.094Z,56.73
2019-05-26T05:47:27.249Z,53.38
2019-05-26T05:48:32.650Z,51.18
2019-05-26T05:49:38.151Z,52.20
2019-05-26T05:50:43.534Z,51.98
2019-05-26T05:51:48.763Z,48.92
2019-05-26T05:52:54.261Z,50.28
2019-05-26T05:53:59.496Z,47.03
2019-05-26T05:55:05.319Z,50.65
2019-05-26T05:56:10.888Z,49.27
2019-05-26T05:57:16.215Z,51.73
2019-05-26T05:58:21.738Z,47.03
2019-05-26T05:59:27.088Z,49.30
2019-05-26T06:00:32.353Z,44.88
2019-05-26T06:01:37.793Z,54.58
2019-05-26T06:02:43.063Z,49.08
2019-05-26T06:03:48.533Z,51.70
2019-05-26T06:04:54.233Z,49.45
2019-05-26T06:05:59.958Z,49.73
2019-05-26T06:07:05.256Z,44.65
2019-05-26T06:08:10.759Z,50.70
2019-05-26T06:09:16.220Z,50.45
2019-05-26T06:10:21.685Z,48.92
2019-05-26T06:11:27.162Z,41.13
2019-05-26T06:12:32.538Z,49.10
2019-05-26T06:13:37.635Z,46.65
2019-05-26T06:14:43.023Z,49.80
2019-05-26T06:15:48.230Z,44.90
2019-05-26T06:16:53.626Z,44.73
2019-05-26T06:17:58.783Z,47.00
2019-05-26T06:19:04.237Z,49.08
2019-05-26T06:20:10.333Z,47.30
2019-05-26T06:21:15.952Z,44.00
2019-05-26T06:22:21.094Z,47.88
2019-05-26T06:23:26.477Z,50.45
2019-05-26T06:24:31.981Z,45.88
2019-05-26T06:25:37.354Z,49.60
2019-05-26T06:26:42.495Z,53.30
2019-05-26T06:27:47.974Z,47.00
2019-05-26T06:28:53.411Z,46.00
2019-05-26T06:29:59.398Z,45.33
2019-05-26T06:31:04.742Z,40.83
2019-05-26T06:32:10.350Z,48.87
2019-05-26T06:33:15.884Z,45.55
2019-05-26T06:34:21.180Z,43.23
2019-05-26T06:35:26.439Z,48.23
2019-05-26T06:36:31.751Z,41.73
2019-05-26T06:37:37.005Z,42.55
2019-05-26T06:38:42.431Z,42.80
2019-05-26T06:39:47.816Z,42.67
2019-05-26T06:40:53.250Z,39.33
2019-05-26T06:41:58.453Z,35.92
2019-05-26T06:43:03.831Z,38.63
2019-05-26T06:44:09.001Z,44.00
2019-05-26T06:45:15.048Z,37.85
2019-05-26T06:46:20.293Z,39.88
2019-05-26T06:47:25.734Z,40.35
2019-05-26T06:48:31.447Z,33.10
2019-05-26T06:49:36.845Z,35.58
2019-05-26T06:50:41.972Z,39.23
2019-05-26T06:51:47.345Z,39.05
2019-05-26T06:52:52.523Z,35.58
2019-05-26T06:53:57.924Z,36.70
2019-05-26T06:55:03.436Z,38.75
2019-05-26T06:56:08.787Z,39.83
2019-05-26T06:57:13.931Z,37.78
2019-05-26T06:58:19.502Z,40.92
2019-05-26T06:59:24.963Z,38.65
2019-05-26T07:00:30.447Z,33.28
2019-05-26T07:01:35.603Z,34.50
2019-05-26T07:02:41.013Z,33.55
2019-05-26T07:03:46.139Z,34.48
2019-05-26T07:04:51.440Z,37.83
2019-05-26T07:05:56.704Z,31.62
2019-05-26T07:07:02.123Z,39.73
2019-05-26T07:08:07.266Z,37.55
2019-05-26T07:09:12.667Z,32.85
2019-05-26T07:10:17.998Z,30.30
2019-05-26T07:11:23.318Z,40.15
2019-05-26T07:12:28.785Z,34.85
2019-05-26T07:13:34.124Z,36.55
2019-05-26T07:14:39.438Z,32.85
2019-05-26T07:15:44.831Z,35.73
2019-05-26T07:16:49.989Z,35.25
2019-05-26T07:17:55.691Z,37.25
2019-05-26T07:19:01.008Z,36.40
2019-05-26T07:20:06.650Z,34.80
2019-05-26T07:21:11.900Z,33.33
2019-05-26T07:22:17.238Z,37.35
2019-05-26T07:23:22.691Z,42.25
2019-05-26T07:24:29.487Z,37.98
2019-05-26T07:25:34.721Z,34.75
2019-05-26T07:26:40.081Z,33.75
2019-05-26T07:27:45.251Z,32.42
2019-05-26T07:28:50.703Z,32.15
2019-05-26T07:29:56.221Z,33.70
2019-05-26T07:31:01.965Z,34.27
2019-05-26T07:32:07.216Z,33.90
2019-05-26T07:33:12.629Z,30.75
2019-05-26T07:34:18.149Z,27.00
2019-05-26T07:35:23.470Z,24.20
2019-05-26T07:36:28.603Z,24.82
2019-05-26T07:37:34.275Z,30.27
2019-05-26T07:38:39.807Z,25.30
2019-05-26T07:39:45.332Z,29.10
2019-05-26T07:40:50.556Z,25.30
2019-05-26T07:42:09.190Z,25.43
2019-05-26T07:43:03.056Z,25.75
2019-05-26T07:44:08.357Z,24.30
2019-05-26T07:45:15.282Z,22.85
2019-05-26T07:46:20.896Z,22.20
2019-05-26T07:47:26.131Z,25.35
2019-05-26T07:48:35.646Z,25.32
2019-05-26T07:49:38.528Z,22.82
2019-05-26T07:50:44.350Z,19.70
2019-05-26T07:51:49.638Z,21.80
2019-05-26T07:52:55.277Z,19.80
2019-05-26T07:54:00.491Z,20.60
2019-05-26T07:55:06.223Z,20.55
2019-05-26T07:56:11.428Z,17.57
2019-05-26T07:57:17.073Z,20.77
2019-05-26T07:58:22.269Z,20.70
2019-05-26T07:59:27.650Z,21.60
2019-05-26T08:00:32.887Z,19.90
2019-05-26T08:01:38.486Z,19.87
2019-05-26T08:02:43.802Z,19.48
2019-05-26T08:03:49.150Z,18.25
2019-05-26T08:04:54.397Z,19.17
2019-05-26T08:05:59.947Z,17.45
2019-05-26T08:07:05.367Z,16.90
2019-05-26T08:08:12.998Z,18.32
2019-05-26T08:09:17.677Z,19.25
2019-05-26T08:10:23.142Z,19.52
2019-05-26T08:11:28.271Z,21.62
2019-05-26T08:12:33.629Z,19.73
2019-05-26T08:13:38.822Z,19.60
2019-05-26T08:14:44.203Z,18.17
2019-05-26T08:15:49.339Z,17.32
2019-05-26T08:16:54.750Z,18.25
2019-05-26T08:18:00.008Z,15.60
2019-05-26T08:19:05.581Z,17.48
2019-05-26T08:20:11.694Z,16.37
2019-05-26T08:21:17.060Z,17.42
2019-05-26T08:22:22.387Z,16.20
2019-05-26T08:23:28.047Z,14.43
2019-05-26T08:24:33.422Z,14.53
2019-05-26T08:25:38.770Z,16.50
2019-05-26T08:26:44.092Z,17.00
2019-05-26T08:27:49.700Z,16.60
2019-05-26T08:28:55.103Z,18.62
2019-05-26T08:30:00.536Z,18.80
2019-05-26T08:31:05.666Z,21.27
2019-05-26T08:32:11.107Z,12.95
2019-05-26T08:33:16.324Z,20.48
2019-05-26T08:34:21.846Z,17.52
2019-05-26T08:35:27.186Z,13.35
2019-05-26T08:36:32.535Z,14.15
2019-05-26T08:37:37.719Z,12.53
2019-05-26T08:38:43.343Z,12.88
2019-05-26T08:39:48.791Z,12.85
2019-05-26T08:40:54.119Z,13.20
2019-05-26T08:41:59.529Z,12.37
2019-05-26T08:43:05.303Z,14.30
2019-05-26T08:44:10.617Z,12.20
2019-05-26T08:45:16.101Z,12.07
2019-05-26T08:46:21.707Z,11.28
2019-05-26T08:47:27.169Z,13.80
2019-05-26T08:48:32.389Z,13.95
2019-05-26T08:49:37.711Z,9.43
2019-05-26T08:50:43.435Z,11.88
2019-05-26T08:51:48.861Z,12.00
2019-05-26T08:52:54.134Z,13.50
2019-05-26T08:53:59.661Z,12.67
2019-05-26T08:55:05.102Z,11.63
2019-05-26T08:56:10.440Z,11.37
2019-05-26T08:57:15.584Z,10.30
2019-05-26T08:58:21.193Z,9.50
2019-05-26T08:59:26.545Z,9.10
2019-05-26T09:00:32.088Z,13.28
2019-05-26T09:01:37.467Z,10.48
2019-05-26T09:02:42.922Z,11.12
2019-05-26T09:03:48.177Z,9.78
2019-05-26T09:04:53.885Z,8.18
2019-05-26T09:05:59.067Z,7.37
2019-05-26T09:07:04.536Z,8.27
2019-05-26T09:08:09.988Z,11.83
2019-05-26T09:09:15.327Z,8.25
2019-05-26T09:10:20.773Z,12.07
2019-05-26T09:11:26.144Z,7.25
2019-05-26T09:12:31.740Z,8.23
2019-05-26T09:13:37.100Z,7.50
2019-05-26T09:14:42.267Z,6.15
2019-05-26T09:15:47.631Z,6.60
2019-05-26T09:16:52.921Z,8.03
2019-05-26T09:17:58.697Z,7.30
2019-05-26T09:19:04.007Z,8.10
2019-05-26T09:20:11.603Z,7.45
2019-05-26T09:21:17.147Z,8.40
2019-05-26T09:22:22.468Z,5.97
2019-05-26T09:23:27.623Z,7.60
2019-05-26T09:24:32.942Z,5.80
2019-05-26T09:25:38.180Z,4.65
2019-05-26T09:26:43.571Z,6.00
2019-05-26T09:27:49.225Z,7.83
2019-05-26T09:28:54.567Z,8.23
2019-05-26T09:29:59.741Z,8.33
2019-05-26T09:31:05.252Z,7.70
2019-05-26T09:32:10.376Z,6.73
2019-05-26T09:33:15.758Z,6.08
2019-05-26T09:34:20.903Z,6.00
2019-05-26T09:35:26.293Z,6.08
2019-05-26T09:36:31.508Z,5.10
2019-05-26T09:37:37.242Z,5.30
2019-05-26T09:38:42.911Z,7.05
2019-05-26T09:39:48.488Z,4.53
2019-05-26T09:40:53.702Z,5.00
2019-05-26T09:41:59.335Z,5.62
2019-05-26T09:43:15.622Z,6.50
2019-05-26T09:44:12.072Z,5.47
2019-05-26T09:45:19.870Z,6.00
2019-05-26T09:46:25.584Z,7.67
2019-05-26T09:47:30.845Z,5.37
2019-05-26T09:48:36.352Z,6.30
2019-05-26T09:49:41.517Z,6.50
2019-05-26T09:50:46.968Z,5.60
2019-05-26T09:51:52.476Z,6.53
2019-05-26T09:52:58.365Z,7.73
2019-05-26T09:54:03.612Z,5.72
2019-05-26T09:55:10.615Z,4.90
2019-05-26T09:56:15.854Z,5.05
2019-05-26T09:57:21.336Z,6.83
2019-05-26T09:58:26.645Z,5.93
2019-05-26T09:59:32.128Z,5.67
2019-05-26T10:00:37.325Z,5.28
2019-05-26T10:01:42.634Z,5.33
2019-05-26T10:02:47.827Z,4.35
2019-05-26T10:03:53.190Z,5.25
2019-05-26T10:04:58.339Z,5.57
2019-05-26T10:06:03.859Z,4.93
2019-05-26T10:07:13.336Z,6.78
2019-05-26T10:08:16.800Z,4.53
2019-05-26T10:09:22.054Z,5.40
2019-05-26T10:10:27.776Z,4.70
2019-05-26T10:11:33.309Z,5.00
2019-05-26T10:12:38.824Z,4.67
2019-05-26T10:13:43.997Z,7.10
2019-05-26T10:14:49.338Z,6.40
2019-05-26T10:15:54.734Z,4.83
2019-05-26T10:17:00.267Z,3.97
2019-05-26T10:18:05.542Z,4.70
2019-05-26T10:19:10.927Z,4.40
2019-05-26T10:20:17.843Z,4.33
2019-05-26T10:21:23.575Z,4.33
2019-05-26T10:22:28.878Z,4.67
2019-05-26T10:23:34.251Z,5.30
2019-05-26T10:24:39.683Z,4.43
2019-05-26T10:25:44.977Z,6.20
2019-05-26T10:26:50.107Z,5.23
2019-05-26T10:27:55.417Z,4.20
2019-05-26T10:29:01.018Z,4.20
2019-05-26T10:30:07.747Z,4.40
2019-05-26T10:31:12.996Z,4.60
2019-05-26T10:32:18.357Z,3.87
2019-05-26T10:33:23.600Z,3.83
2019-05-26T10:34:28.893Z,4.63
2019-05-26T10:35:34.442Z,5.40
2019-05-26T10:36:39.994Z,4.77
2019-05-26T10:37:45.186Z,7.30
2019-05-26T10:38:50.720Z,8.43
2019-05-26T10:39:55.917Z,4.30
2019-05-26T10:41:01.357Z,5.63
2019-05-26T10:42:06.561Z,6.07
2019-05-26T10:43:11.997Z,4.80
2019-05-26T10:44:17.128Z,4.30
2019-05-26T10:45:23.006Z,5.70
2019-05-26T10:46:28.236Z,4.47
2019-05-26T10:47:33.793Z,6.80
2019-05-26T10:48:39.253Z,4.63
2019-05-26T10:49:44.561Z,4.30
2019-05-26T10:50:49.751Z,4.83
2019-05-26T10:51:55.410Z,8.00
2019-05-26T10:53:00.544Z,5.07
2019-05-26T10:54:05.992Z,4.10
2019-05-26T10:55:11.375Z,4.67
2019-05-26T10:56:17.242Z,4.57
2019-05-26T10:57:22.376Z,3.90
2019-05-26T10:58:27.687Z,9.50
2019-05-26T10:59:32.992Z,5.43
2019-05-26T11:00:38.392Z,3.57
2019-05-26T11:01:43.620Z,8.17
2019-05-26T11:02:48.953Z,4.70
2019-05-26T11:03:54.234Z,4.43
2019-05-26T11:04:59.629Z,4.90
2019-05-26T11:06:05.122Z,4.70
2019-05-26T11:07:10.723Z,4.07
2019-05-26T11:08:16.014Z,4.03
2019-05-26T11:09:21.550Z,5.33
2019-05-26T11:10:26.925Z,6.00
2019-05-26T11:11:32.293Z,5.17
2019-05-26T11:12:37.541Z,5.43
2019-05-26T11:13:43.262Z,6.93
2019-05-26T11:14:48.408Z,5.10
2019-05-26T11:15:53.712Z,4.97
2019-05-26T11:16:58.922Z,5.13
2019-05-26T11:18:04.298Z,6.77
2019-05-26T11:19:09.460Z,6.10
2019-05-26T11:20:15.585Z,5.90
2019-05-26T11:21:20.709Z,5.90
2019-05-26T11:22:26.206Z,4.23
2019-05-26T11:23:31.401Z,5.03
2019-05-26T11:24:36.695Z,4.67
2019-05-26T11:25:41.935Z,5.20
2019-05-26T11:26:47.262Z,5.50
2019-05-26T11:27:52.538Z,4.90
2019-05-26T11:28:57.801Z,4.50
2019-05-26T11:30:03.211Z,4.30
2019-05-26T11:31:08.618Z,5.53
2019-05-26T11:32:13.831Z,5.50
2019-05-26T11:33:19.444Z,6.70
2019-05-26T11:34:24.633Z,9.43
2019-05-26T11:35:29.938Z,5.47
2019-05-26T11:36:35.262Z,5.73
2019-05-26T11:37:40.620Z,6.33
2019-05-26T11:38:46.197Z,4.90
2019-05-26T11:39:51.636Z,6.40
2019-05-26T11:40:57.492Z,5.73
2019-05-26T11:42:12.786Z,4.40
2019-05-26T11:43:16.776Z,7.70
2019-05-26T11:44:18.560Z,6.80
2019-05-26T11:45:24.036Z,4.23
2019-05-26T11:46:29.378Z,5.97
2019-05-26T11:47:34.732Z,4.83
2019-05-26T11:48:40.494Z,5.87
2019-05-26T11:49:45.698Z,10.43
2019-05-26T11:50:51.127Z,5.70
2019-05-26T11:51:56.272Z,6.80
2019-05-26T11:53:01.996Z,6.80
2019-05-26T11:54:07.372Z,4.73
2019-05-26T11:55:12.964Z,5.23
2019-05-26T11:56:18.095Z,6.33
2019-05-26T11:57:23.419Z,5.13
2019-05-26T11:58:28.812Z,5.20
2019-05-26T11:59:34.105Z,4.27
2019-05-26T12:00:39.355Z,5.70
2019-05-26T12:01:44.658Z,5.60
2019-05-26T12:02:49.777Z,4.50
2019-05-26T12:03:55.108Z,6.77
2019-05-26T12:05:00.539Z,8.83
2019-05-26T12:06:07.187Z,6.07
2019-05-26T12:07:12.718Z,5.67
2019-05-26T12:08:18.121Z,16.03
2019-05-26T12:09:24.923Z,6.40
2019-05-26T12:10:31.296Z,6.13
2019-05-26T12:11:36.531Z,5.33
2019-05-26T12:12:42.025Z,4.73
2019-05-26T12:13:47.169Z,6.20
2019-05-26T12:14:52.501Z,6.70
2019-05-26T12:15:57.740Z,15.53
2019-05-26T12:17:03.080Z,8.33
2019-05-26T12:18:08.422Z,4.43
2019-05-26T12:19:13.727Z,10.83
2019-05-26T12:20:19.056Z,7.33
2019-05-26T12:21:24.284Z,5.27
2019-05-26T12:22:29.751Z,5.43
2019-05-26T12:23:35.341Z,6.93
2019-05-26T12:24:40.550Z,4.90
2019-05-26T12:25:45.995Z,7.57
2019-05-26T12:26:51.141Z,5.90
2019-05-26T12:27:56.511Z,16.97
2019-05-26T12:29:01.754Z,9.47
2019-05-26T12:30:08.050Z,6.23
2019-05-26T12:31:13.172Z,6.00
2019-05-26T12:32:18.483Z,7.40
2019-05-26T12:33:23.677Z,10.20
2019-05-26T12:34:29.218Z,5.77
2019-05-26T12:35:46.861Z,6.10
2019-05-26T12:36:52.167Z,4.67
2019-05-26T12:37:57.283Z,5.20
2019-05-26T12:39:02.906Z,8.20
2019-05-26T12:40:08.869Z,6.00
2019-05-26T12:41:14.273Z,5.27
2019-05-26T12:42:19.597Z,5.00
2019-05-26T12:43:25.344Z,5.23
2019-05-26T12:44:30.833Z,4.53
2019-05-26T12:45:36.123Z,5.70
2019-05-26T12:46:41.657Z,5.27
2019-05-26T12:47:47.147Z,5.63
2019-05-26T12:48:52.270Z,5.47
2019-05-26T12:49:57.700Z,6.90
2019-05-26T12:51:02.818Z,6.90
2019-05-26T12:52:08.298Z,4.90
2019-05-26T12:53:13.586Z,5.73
2019-05-26T12:54:19.126Z,7.13
2019-05-26T12:55:24.652Z,25.10
2019-05-26T12:56:30.039Z,7.73
2019-05-26T12:57:35.485Z,5.47
2019-05-26T12:58:40.885Z,7.53
2019-05-26T12:59:46.063Z,5.83
2019-05-26T13:00:54.861Z,7.43
2019-05-26T13:01:58.529Z,6.30
2019-05-26T13:03:03.927Z,6.40
2019-05-26T13:04:10.935Z,6.10
2019-05-26T13:05:16.457Z,9.97
2019-05-26T13:06:21.706Z,6.93
2019-05-26T13:07:27.098Z,5.77
2019-05-26T13:08:32.212Z,8.20
2019-05-26T13:09:37.755Z,7.30
2019-05-26T13:10:43.050Z,5.80
2019-05-26T13:11:48.486Z,6.57
2019-05-26T13:12:53.633Z,8.43
2019-05-26T13:13:59.009Z,5.60
2019-05-26T13:15:06.156Z,9.57
2019-05-26T13:16:11.782Z,6.13
2019-05-26T13:17:17.047Z,8.73
2019-05-26T13:18:22.601Z,7.53
2019-05-26T13:19:28.010Z,6.00
2019-05-26T13:20:33.486Z,7.00
2019-05-26T13:21:38.729Z,5.87
2019-05-26T13:22:44.387Z,5.73
2019-05-26T13:23:49.836Z,8.30
2019-05-26T13:24:55.463Z,5.50
2019-05-26T13:26:00.658Z,6.93
2019-05-26T13:27:06.257Z,7.00
2019-05-26T13:28:11.688Z,7.13
2019-05-26T13:29:17.378Z,5.80
2019-05-26T13:30:24.117Z,5.97
2019-05-26T13:31:29.431Z,5.57
2019-05-26T13:32:34.615Z,9.13
2019-05-26T13:33:40.075Z,10.13
2019-05-26T13:34:45.743Z,5.97
2019-05-26T13:35:51.097Z,8.13
2019-05-26T13:36:56.715Z,7.20
2019-05-26T13:38:02.356Z,14.00
2019-05-26T13:39:08.900Z,11.00
2019-05-26T13:40:14.685Z,8.70
2019-05-26T13:41:20.642Z,6.00
2019-05-26T13:42:26.062Z,7.07
2019-05-26T13:43:31.189Z,7.50
2019-05-26T13:44:36.699Z,8.03
2019-05-26T13:45:41.841Z,6.00
2019-05-26T13:46:47.603Z,5.50
2019-05-26T13:47:52.805Z,8.70
2019-05-26T13:48:58.287Z,5.30
2019-05-26T13:50:03.707Z,8.43
2019-05-26T13:51:09.118Z,6.30
2019-05-26T13:52:14.287Z,5.90
2019-05-26T13:53:19.969Z,6.53
2019-05-26T13:54:25.191Z,8.50
2019-05-26T13:55:30.451Z,4.90
2019-05-26T13:56:35.708Z,6.00
2019-05-26T13:57:40.988Z,6.17
2019-05-26T13:58:46.186Z,5.10
2019-05-26T13:59:51.530Z,6.47
2019-05-26T14:00:56.793Z,5.43
2019-05-26T14:02:02.216Z,7.67
2019-05-26T14:03:07.541Z,6.10
2019-05-26T14:04:12.840Z,8.73
2019-05-26T14:05:18.327Z,6.03
2019-05-26T14:06:23.737Z,6.03
2019-05-26T14:07:28.998Z,6.63
2019-05-26T14:08:34.379Z,6.33
2019-05-26T14:09:39.752Z,8.13
2019-05-26T14:10:45.238Z,6.70
2019-05-26T14:11:50.553Z,5.60
2019-05-26T14:12:56.261Z,7.77
2019-05-26T14:14:01.557Z,6.50